sensor_id;sensor_type;location;lat;lon;timestamp;P1;durP1;ratioP1;P2;durP2;ratioP2
71046;SDS011;58703;48.978;8.982;2023-09-12T00:00:10;8.80;;;5.25;;
71046;SDS011;58703;48.978;8.982;2023-09-12T00:02:37;16.93;;;6.30;;
71046;SDS011;58703;48.978;8.982;2023-09-12T00:05:02;10.25;;;7.22;;
71046;SDS011;58703;48.978;8.982;2023-09-12T00:07:29;13.85;;;7.53;;
71046;SDS011;58703;48.978;8.982;2023-09-12T00:09:57;10.88;;;6.45;;
71046;SDS011;58703;48.978;8.982;2023-09-12T00:12:24;10.20;;;5.83;;
71046;SDS011;58703;48.978;8.982;2023-09-12T00:14:50;9.00;;;5.93;;
71046;SDS011;58703;48.978;8.982;2023-09-12T00:17:16;8.02;;;6.30;;
71046;SDS011;58703;48.978;8.982;2023-09-12T00:19:43;10.98;;;6.10;;
71046;SDS011;58703;48.978;8.982;2023-09-12T00:22:08;9.03;;;5.90;;
71046;SDS011;58703;48.978;8.982;2023-09-12T00:24:34;9.18;;;6.25;;
71046;SDS011;58703;48.978;8.982;2023-09-12T00:27:00;10.07;;;6.63;;
71046;SDS011;58703;48.978;8.982;2023-09-12T00:29:25;8.77;;;6.37;;
71046;SDS011;58703;48.978;8.982;2023-09-12T00:31:51;11.25;;;6.25;;
71046;SDS011;58703;48.978;8.982;2023-09-12T00:34:17;14.43;;;5.80;;
71046;SDS011;58703;48.978;8.982;2023-09-12T00:36:43;16.55;;;6.78;;
71046;SDS011;58703;48.978;8.982;2023-09-12T00:39:09;11.00;;;6.85;;
71046;SDS011;58703;48.978;8.982;2023-09-12T00:41:35;11.70;;;7.10;;
71046;SDS011;58703;48.978;8.982;2023-09-12T00:44:01;11.02;;;7.30;;
71046;SDS011;58703;48.978;8.982;2023-09-12T00:46:26;15.50;;;9.27;;
71046;SDS011;58703;48.978;8.982;2023-09-12T00:48:53;11.48;;;7.93;;
71046;SDS011;58703;48.978;8.982;2023-09-12T00:51:19;8.40;;;6.38;;
71046;SDS011;58703;48.978;8.982;2023-09-12T00:53:46;9.97;;;7.23;;
71046;SDS011;58703;48.978;8.982;2023-09-12T00:56:12;12.20;;;6.65;;
71046;SDS011;58703;48.978;8.982;2023-09-12T00:58:39;10.50;;;6.90;;
71046;SDS011;58703;48.978;8.982;2023-09-12T01:01:06;8.35;;;5.93;;
71046;SDS011;58703;48.978;8.982;2023-09-12T01:03:32;13.05;;;6.85;;
71046;SDS011;58703;48.978;8.982;2023-09-12T01:05:58;9.90;;;6.30;;
71046;SDS011;58703;48.978;8.982;2023-09-12T01:08:26;11.52;;;6.60;;
71046;SDS011;58703;48.978;8.982;2023-09-12T01:10:54;10.00;;;6.50;;
71046;SDS011;58703;48.978;8.982;2023-09-12T01:13:22;11.43;;;6.22;;
71046;SDS011;58703;48.978;8.982;2023-09-12T01:15:49;13.43;;;6.60;;
71046;SDS011;58703;48.978;8.982;2023-09-12T01:18:15;6.93;;;4.97;;
71046;SDS011;58703;48.978;8.982;2023-09-12T01:20:42;8.50;;;5.72;;
71046;SDS011;58703;48.978;8.982;2023-09-12T01:29:25;8.43;;;5.25;;
71046;SDS011;58703;48.978;8.982;2023-09-12T01:31:52;7.72;;;5.05;;
71046;SDS011;58703;48.978;8.982;2023-09-12T01:34:18;11.07;;;5.72;;
71046;SDS011;58703;48.978;8.982;2023-09-12T01:36:44;7.63;;;5.70;;
71046;SDS011;58703;48.978;8.982;2023-09-12T01:39:09;7.70;;;4.90;;
71046;SDS011;58703;48.978;8.982;2023-09-12T01:41:37;8.63;;;5.50;;
71046;SDS011;58703;48.978;8.982;2023-09-12T01:44:06;9.43;;;4.70;;
71046;SDS011;58703;48.978;8.982;2023-09-12T01:46:33;11.18;;;5.97;;
71046;SDS011;58703;48.978;8.982;2023-09-12T01:48:59;8.88;;;5.05;;
71046;SDS011;58703;48.978;8.982;2023-09-12T01:51:25;14.55;;;7.68;;
71046;SDS011;58703;48.978;8.982;2023-09-12T01:53:54;14.67;;;7.60;;
71046;SDS011;58703;48.978;8.982;2023-09-12T01:56:21;16.90;;;8.15;;
71046;SDS011;58703;48.978;8.982;2023-09-12T01:58:47;12.20;;;7.57;;
71046;SDS011;58703;48.978;8.982;2023-09-12T02:01:13;14.17;;;8.57;;
71046;SDS011;58703;48.978;8.982;2023-09-12T02:03:39;22.58;;;7.97;;
71046;SDS011;58703;48.978;8.982;2023-09-12T02:06:05;15.60;;;7.50;;
71046;SDS011;58703;48.978;8.982;2023-09-12T02:08:31;12.32;;;7.38;;
71046;SDS011;58703;48.978;8.982;2023-09-12T02:10:57;15.35;;;7.18;;
71046;SDS011;58703;48.978;8.982;2023-09-12T02:13:22;7.80;;;6.10;;
71046;SDS011;58703;48.978;8.982;2023-09-12T02:15:48;10.83;;;6.53;;
71046;SDS011;58703;48.978;8.982;2023-09-12T02:18:13;14.38;;;5.70;;
71046;SDS011;58703;48.978;8.982;2023-09-12T02:20:40;11.03;;;6.53;;
71046;SDS011;58703;48.978;8.982;2023-09-12T02:23:06;9.65;;;6.07;;
71046;SDS011;58703;48.978;8.982;2023-09-12T02:25:33;13.63;;;5.93;;
71046;SDS011;58703;48.978;8.982;2023-09-12T02:27:59;10.35;;;6.35;;
71046;SDS011;58703;48.978;8.982;2023-09-12T02:30:24;9.63;;;6.67;;
71046;SDS011;58703;48.978;8.982;2023-09-12T02:32:50;12.80;;;6.87;;
71046;SDS011;58703;48.978;8.982;2023-09-12T02:35:15;11.07;;;6.85;;
71046;SDS011;58703;48.978;8.982;2023-09-12T02:37:41;12.23;;;6.93;;
71046;SDS011;58703;48.978;8.982;2023-09-12T02:40:06;15.17;;;7.47;;
71046;SDS011;58703;48.978;8.982;2023-09-12T02:42:35;13.77;;;7.70;;
71046;SDS011;58703;48.978;8.982;2023-09-12T02:45:01;16.17;;;7.40;;
71046;SDS011;58703;48.978;8.982;2023-09-12T02:47:27;10.83;;;8.07;;
71046;SDS011;58703;48.978;8.982;2023-09-12T02:49:53;16.63;;;8.80;;
71046;SDS011;58703;48.978;8.982;2023-09-12T02:52:18;19.03;;;8.53;;
71046;SDS011;58703;48.978;8.982;2023-09-12T02:54:44;14.80;;;8.10;;
71046;SDS011;58703;48.978;8.982;2023-09-12T02:57:11;13.87;;;7.90;;
71046;SDS011;58703;48.978;8.982;2023-09-12T02:59:36;13.73;;;8.48;;
71046;SDS011;58703;48.978;8.982;2023-09-12T03:02:02;16.17;;;8.67;;
71046;SDS011;58703;48.978;8.982;2023-09-12T03:04:27;14.33;;;8.53;;
71046;SDS011;58703;48.978;8.982;2023-09-12T03:06:55;13.18;;;8.60;;
71046;SDS011;58703;48.978;8.982;2023-09-12T03:09:20;16.33;;;8.57;;
71046;SDS011;58703;48.978;8.982;2023-09-12T03:11:48;13.50;;;9.43;;
71046;SDS011;58703;48.978;8.982;2023-09-12T03:14:14;15.30;;;8.70;;
71046;SDS011;58703;48.978;8.982;2023-09-12T03:16:40;14.65;;;9.10;;
71046;SDS011;58703;48.978;8.982;2023-09-12T03:19:05;13.80;;;8.80;;
71046;SDS011;58703;48.978;8.982;2023-09-12T03:21:31;13.67;;;8.83;;
71046;SDS011;58703;48.978;8.982;2023-09-12T03:23:57;11.77;;;8.52;;
71046;SDS011;58703;48.978;8.982;2023-09-12T03:26:22;15.60;;;8.93;;
71046;SDS011;58703;48.978;8.982;2023-09-12T03:28:49;13.87;;;8.97;;
71046;SDS011;58703;48.978;8.982;2023-09-12T03:31:17;17.53;;;8.70;;
71046;SDS011;58703;48.978;8.982;2023-09-12T03:33:43;13.20;;;8.88;;
71046;SDS011;58703;48.978;8.982;2023-09-12T03:36:15;13.43;;;9.05;;
71046;SDS011;58703;48.978;8.982;2023-09-12T03:38:42;14.90;;;9.32;;
71046;SDS011;58703;48.978;8.982;2023-09-12T03:41:07;14.47;;;9.20;;
71046;SDS011;58703;48.978;8.982;2023-09-12T03:43:33;14.23;;;8.83;;
71046;SDS011;58703;48.978;8.982;2023-09-12T03:45:58;19.20;;;9.57;;
71046;SDS011;58703;48.978;8.982;2023-09-12T03:48:24;14.77;;;10.02;;
71046;SDS011;58703;48.978;8.982;2023-09-12T03:50:50;20.07;;;9.60;;
71046;SDS011;58703;48.978;8.982;2023-09-12T03:53:16;15.32;;;9.13;;
71046;SDS011;58703;48.978;8.982;2023-09-12T03:55:42;17.08;;;9.15;;
71046;SDS011;58703;48.978;8.982;2023-09-12T03:58:08;14.93;;;9.60;;
71046;SDS011;58703;48.978;8.982;2023-09-12T04:00:34;14.13;;;9.52;;
71046;SDS011;58703;48.978;8.982;2023-09-12T04:02:59;14.57;;;7.90;;
71046;SDS011;58703;48.978;8.982;2023-09-12T04:05:25;12.20;;;8.13;;
71046;SDS011;58703;48.978;8.982;2023-09-12T04:07:52;14.25;;;8.77;;
71046;SDS011;58703;48.978;8.982;2023-09-12T04:10:18;13.70;;;8.68;;
71046;SDS011;58703;48.978;8.982;2023-09-12T04:12:45;15.82;;;8.43;;
71046;SDS011;58703;48.978;8.982;2023-09-12T04:15:11;13.87;;;8.80;;
71046;SDS011;58703;48.978;8.982;2023-09-12T04:17:36;14.23;;;8.53;;
71046;SDS011;58703;48.978;8.982;2023-09-12T04:20:02;12.18;;;8.88;;
71046;SDS011;58703;48.978;8.982;2023-09-12T04:22:29;14.43;;;8.67;;
71046;SDS011;58703;48.978;8.982;2023-09-12T04:24:55;11.50;;;7.82;;
71046;SDS011;58703;48.978;8.982;2023-09-12T04:27:20;21.33;;;8.27;;
71046;SDS011;58703;48.978;8.982;2023-09-12T04:29:46;17.83;;;7.87;;
71046;SDS011;58703;48.978;8.982;2023-09-12T04:32:12;15.23;;;7.63;;
71046;SDS011;58703;48.978;8.982;2023-09-12T04:34:37;12.97;;;8.83;;
71046;SDS011;58703;48.978;8.982;2023-09-12T04:37:03;12.98;;;8.02;;
71046;SDS011;58703;48.978;8.982;2023-09-12T04:39:30;14.93;;;8.20;;
71046;SDS011;58703;48.978;8.982;2023-09-12T04:41:56;13.27;;;8.18;;
71046;SDS011;58703;48.978;8.982;2023-09-12T04:44:22;16.92;;;8.82;;
71046;SDS011;58703;48.978;8.982;2023-09-12T04:46:47;12.43;;;7.97;;
71046;SDS011;58703;48.978;8.982;2023-09-12T04:49:13;12.90;;;8.60;;
71046;SDS011;58703;48.978;8.982;2023-09-12T04:51:39;13.70;;;8.73;;
71046;SDS011;58703;48.978;8.982;2023-09-12T04:54:05;14.35;;;8.77;;
71046;SDS011;58703;48.978;8.982;2023-09-12T04:56:31;13.93;;;8.67;;
71046;SDS011;58703;48.978;8.982;2023-09-12T04:58:56;12.35;;;8.60;;
71046;SDS011;58703;48.978;8.982;2023-09-12T05:01:22;12.03;;;7.57;;
71046;SDS011;58703;48.978;8.982;2023-09-12T05:03:47;11.27;;;7.90;;
71046;SDS011;58703;48.978;8.982;2023-09-12T05:06:13;14.15;;;9.00;;
71046;SDS011;58703;48.978;8.982;2023-09-12T05:08:38;14.57;;;7.60;;
71046;SDS011;58703;48.978;8.982;2023-09-12T05:11:04;14.77;;;8.17;;
71046;SDS011;58703;48.978;8.982;2023-09-12T05:13:30;14.82;;;8.45;;
71046;SDS011;58703;48.978;8.982;2023-09-12T05:15:55;14.43;;;8.03;;
71046;SDS011;58703;48.978;8.982;2023-09-12T05:18:22;17.33;;;8.43;;
71046;SDS011;58703;48.978;8.982;2023-09-12T05:20:48;14.30;;;8.68;;
71046;SDS011;58703;48.978;8.982;2023-09-12T05:23:14;13.00;;;8.85;;
71046;SDS011;58703;48.978;8.982;2023-09-12T05:25:39;18.57;;;8.37;;
71046;SDS011;58703;48.978;8.982;2023-09-12T05:28:05;15.10;;;8.50;;
71046;SDS011;58703;48.978;8.982;2023-09-12T05:30:31;14.10;;;7.93;;
71046;SDS011;58703;48.978;8.982;2023-09-12T05:32:56;14.23;;;7.40;;
71046;SDS011;58703;48.978;8.982;2023-09-12T05:35:22;10.88;;;7.65;;
71046;SDS011;58703;48.978;8.982;2023-09-12T05:37:47;13.67;;;7.70;;
71046;SDS011;58703;48.978;8.982;2023-09-12T05:40:13;11.00;;;8.98;;
71046;SDS011;58703;48.978;8.982;2023-09-12T05:42:39;13.53;;;7.60;;
71046;SDS011;58703;48.978;8.982;2023-09-12T05:45:06;11.77;;;7.75;;
71046;SDS011;58703;48.978;8.982;2023-09-12T05:47:32;14.07;;;8.03;;
71046;SDS011;58703;48.978;8.982;2023-09-12T05:49:57;13.25;;;8.18;;
71046;SDS011;58703;48.978;8.982;2023-09-12T05:52:24;14.85;;;8.50;;
71046;SDS011;58703;48.978;8.982;2023-09-12T05:54:50;13.70;;;8.13;;
71046;SDS011;58703;48.978;8.982;2023-09-12T05:57:15;14.37;;;9.20;;
71046;SDS011;58703;48.978;8.982;2023-09-12T05:59:41;13.30;;;7.45;;
71046;SDS011;58703;48.978;8.982;2023-09-12T06:02:07;13.23;;;7.53;;
71046;SDS011;58703;48.978;8.982;2023-09-12T06:04:35;14.52;;;7.70;;
71046;SDS011;58703;48.978;8.982;2023-09-12T06:07:02;10.27;;;7.53;;
71046;SDS011;58703;48.978;8.982;2023-09-12T06:09:28;11.77;;;7.05;;
71046;SDS011;58703;48.978;8.982;2023-09-12T06:11:54;14.20;;;7.70;;
71046;SDS011;58703;48.978;8.982;2023-09-12T06:14:20;14.05;;;7.63;;
71046;SDS011;58703;48.978;8.982;2023-09-12T06:16:46;11.60;;;7.73;;
71046;SDS011;58703;48.978;8.982;2023-09-12T06:19:11;16.67;;;7.53;;
71046;SDS011;58703;48.978;8.982;2023-09-12T06:21:37;11.70;;;7.90;;
71046;SDS011;58703;48.978;8.982;2023-09-12T06:24:10;13.70;;;7.20;;
71046;SDS011;58703;48.978;8.982;2023-09-12T06:26:37;10.98;;;7.70;;
71046;SDS011;58703;48.978;8.982;2023-09-12T06:29:04;12.57;;;7.40;;
71046;SDS011;58703;48.978;8.982;2023-09-12T06:31:29;12.52;;;7.07;;
71046;SDS011;58703;48.978;8.982;2023-09-12T06:33:55;8.87;;;6.60;;
71046;SDS011;58703;48.978;8.982;2023-09-12T06:36:20;13.40;;;7.78;;
71046;SDS011;58703;48.978;8.982;2023-09-12T06:38:46;12.50;;;7.40;;
71046;SDS011;58703;48.978;8.982;2023-09-12T06:41:13;11.55;;;7.05;;
71046;SDS011;58703;48.978;8.982;2023-09-12T06:43:38;19.27;;;7.77;;
71046;SDS011;58703;48.978;8.982;2023-09-12T06:46:04;13.63;;;7.97;;
71046;SDS011;58703;48.978;8.982;2023-09-12T06:48:30;10.30;;;6.70;;
71046;SDS011;58703;48.978;8.982;2023-09-12T06:50:55;14.23;;;7.53;;
71046;SDS011;58703;48.978;8.982;2023-09-12T06:53:21;10.93;;;7.40;;
71046;SDS011;58703;48.978;8.982;2023-09-12T06:55:47;14.23;;;7.30;;
71046;SDS011;58703;48.978;8.982;2023-09-12T06:58:12;11.57;;;7.60;;
71046;SDS011;58703;48.978;8.982;2023-09-12T07:00:38;13.70;;;7.80;;
71046;SDS011;58703;48.978;8.982;2023-09-12T07:03:03;20.35;;;8.65;;
71046;SDS011;58703;48.978;8.982;2023-09-12T07:05:29;12.13;;;7.33;;
71046;SDS011;58703;48.978;8.982;2023-09-12T07:07:55;12.57;;;8.30;;
71046;SDS011;58703;48.978;8.982;2023-09-12T07:10:22;12.23;;;8.20;;
71046;SDS011;58703;48.978;8.982;2023-09-12T07:12:47;15.68;;;8.20;;
71046;SDS011;58703;48.978;8.982;2023-09-12T07:15:13;13.27;;;7.83;;
71046;SDS011;58703;48.978;8.982;2023-09-12T07:17:38;13.35;;;8.65;;
71046;SDS011;58703;48.978;8.982;2023-09-12T07:20:04;10.30;;;8.40;;
71046;SDS011;58703;48.978;8.982;2023-09-12T07:22:36;14.10;;;8.30;;
71046;SDS011;58703;48.978;8.982;2023-09-12T07:25:04;14.93;;;7.95;;
71046;SDS011;58703;48.978;8.982;2023-09-12T07:27:29;14.95;;;7.55;;
71046;SDS011;58703;48.978;8.982;2023-09-12T07:29:55;13.23;;;7.87;;
71046;SDS011;58703;48.978;8.982;2023-09-12T07:32:20;12.63;;;7.70;;
71046;SDS011;58703;48.978;8.982;2023-09-12T07:34:46;11.63;;;7.70;;
71046;SDS011;58703;48.978;8.982;2023-09-12T07:37:14;15.38;;;8.00;;
71046;SDS011;58703;48.978;8.982;2023-09-12T07:39:39;12.03;;;7.90;;
71046;SDS011;58703;48.978;8.982;2023-09-12T07:42:05;12.73;;;8.07;;
71046;SDS011;58703;48.978;8.982;2023-09-12T07:44:31;15.23;;;8.70;;
71046;SDS011;58703;48.978;8.982;2023-09-12T07:46:56;13.82;;;9.18;;
71046;SDS011;58703;48.978;8.982;2023-09-12T07:49:22;21.40;;;9.43;;
71046;SDS011;58703;48.978;8.982;2023-09-12T07:51:49;14.07;;;7.80;;
71046;SDS011;58703;48.978;8.982;2023-09-12T07:54:15;14.63;;;8.63;;
71046;SDS011;58703;48.978;8.982;2023-09-12T07:56:43;16.98;;;8.32;;
71046;SDS011;58703;48.978;8.982;2023-09-12T07:59:08;12.53;;;8.33;;
71046;SDS011;58703;48.978;8.982;2023-09-12T08:01:35;15.25;;;8.63;;
71046;SDS011;58703;48.978;8.982;2023-09-12T08:04:00;13.25;;;8.02;;
71046;SDS011;58703;48.978;8.982;2023-09-12T08:06:26;14.20;;;8.50;;
71046;SDS011;58703;48.978;8.982;2023-09-12T08:08:52;16.08;;;9.00;;
71046;SDS011;58703;48.978;8.982;2023-09-12T08:11:18;13.27;;;7.70;;
71046;SDS011;58703;48.978;8.982;2023-09-12T08:13:45;9.77;;;7.47;;
71046;SDS011;58703;48.978;8.982;2023-09-12T08:16:13;11.63;;;7.72;;
71046;SDS011;58703;48.978;8.982;2023-09-12T08:18:39;11.45;;;7.63;;
71046;SDS011;58703;48.978;8.982;2023-09-12T08:21:04;8.90;;;7.27;;
71046;SDS011;58703;48.978;8.982;2023-09-12T08:23:30;14.37;;;7.60;;
71046;SDS011;58703;48.978;8.982;2023-09-12T08:25:55;13.73;;;7.45;;
71046;SDS011;58703;48.978;8.982;2023-09-12T08:28:21;12.23;;;7.03;;
71046;SDS011;58703;48.978;8.982;2023-09-12T08:30:47;13.15;;;7.38;;
71046;SDS011;58703;48.978;8.982;2023-09-12T08:33:12;13.17;;;6.83;;
71046;SDS011;58703;48.978;8.982;2023-09-12T08:35:38;14.40;;;6.88;;
71046;SDS011;58703;48.978;8.982;2023-09-12T08:38:03;8.63;;;6.33;;
71046;SDS011;58703;48.978;8.982;2023-09-12T08:40:29;14.70;;;7.73;;
71046;SDS011;58703;48.978;8.982;2023-09-12T08:42:55;10.20;;;6.47;;
71046;SDS011;58703;48.978;8.982;2023-09-12T08:45:23;10.77;;;6.63;;
71046;SDS011;58703;48.978;8.982;2023-09-12T08:47:52;14.40;;;7.07;;
71046;SDS011;58703;48.978;8.982;2023-09-12T08:50:18;9.20;;;6.27;;
71046;SDS011;58703;48.978;8.982;2023-09-12T08:52:46;11.60;;;6.53;;
71046;SDS011;58703;48.978;8.982;2023-09-12T08:55:12;10.10;;;6.50;;
71046;SDS011;58703;48.978;8.982;2023-09-12T08:57:39;9.15;;;5.65;;
71046;SDS011;58703;48.978;8.982;2023-09-12T09:00:06;11.30;;;6.13;;
71046;SDS011;58703;48.978;8.982;2023-09-12T09:02:39;11.40;;;5.82;;
71046;SDS011;58703;48.978;8.982;2023-09-12T09:05:06;9.35;;;6.78;;
71046;SDS011;58703;48.978;8.982;2023-09-12T09:07:35;13.35;;;6.18;;
71046;SDS011;58703;48.978;8.982;2023-09-12T09:10:04;9.70;;;6.05;;
71046;SDS011;58703;48.978;8.982;2023-09-12T09:12:32;12.13;;;6.80;;
71046;SDS011;58703;48.978;8.982;2023-09-12T09:14:58;9.80;;;6.43;;
71046;SDS011;58703;48.978;8.982;2023-09-12T09:17:25;9.48;;;6.25;;
71046;SDS011;58703;48.978;8.982;2023-09-12T09:19:51;12.43;;;6.18;;
71046;SDS011;58703;48.978;8.982;2023-09-12T09:22:17;8.53;;;5.77;;
71046;SDS011;58703;48.978;8.982;2023-09-12T09:24:42;8.55;;;6.00;;
71046;SDS011;58703;48.978;8.982;2023-09-12T09:27:08;10.50;;;6.40;;
71046;SDS011;58703;48.978;8.982;2023-09-12T09:29:45;11.47;;;6.37;;
71046;SDS011;58703;48.978;8.982;2023-09-12T09:32:16;9.82;;;5.28;;
71046;SDS011;58703;48.978;8.982;2023-09-12T09:34:43;14.27;;;6.18;;
71046;SDS011;58703;48.978;8.982;2023-09-12T09:37:09;10.37;;;5.83;;
71046;SDS011;58703;48.978;8.982;2023-09-12T09:39:35;11.75;;;5.57;;
71046;SDS011;58703;48.978;8.982;2023-09-12T09:42:00;13.25;;;6.13;;
71046;SDS011;58703;48.978;8.982;2023-09-12T09:44:26;10.63;;;6.17;;
71046;SDS011;58703;48.978;8.982;2023-09-12T09:46:59;11.85;;;5.55;;
71046;SDS011;58703;48.978;8.982;2023-09-12T09:49:27;9.50;;;5.78;;
71046;SDS011;58703;48.978;8.982;2023-09-12T09:51:56;11.35;;;5.68;;
71046;SDS011;58703;48.978;8.982;2023-09-12T09:54:24;10.90;;;5.07;;
71046;SDS011;58703;48.978;8.982;2023-09-12T09:56:55;10.18;;;5.95;;
71046;SDS011;58703;48.978;8.982;2023-09-12T09:59:22;11.25;;;6.28;;
71046;SDS011;58703;48.978;8.982;2023-09-12T10:01:56;11.20;;;5.32;;
71046;SDS011;58703;48.978;8.982;2023-09-12T10:04:24;8.15;;;5.57;;
71046;SDS011;58703;48.978;8.982;2023-09-12T10:06:54;7.90;;;5.57;;
71046;SDS011;58703;48.978;8.982;2023-09-12T10:09:22;10.38;;;6.28;;
71046;SDS011;58703;48.978;8.982;2023-09-12T10:11:51;9.07;;;6.30;;
71046;SDS011;58703;48.978;8.982;2023-09-12T10:14:20;9.70;;;4.97;;
71046;SDS011;58703;48.978;8.982;2023-09-12T10:16:48;11.27;;;5.75;;
71046;SDS011;58703;48.978;8.982;2023-09-12T10:19:18;10.40;;;5.88;;
71046;SDS011;58703;48.978;8.982;2023-09-12T10:21:49;8.52;;;5.50;;
71046;SDS011;58703;48.978;8.982;2023-09-12T10:24:19;8.90;;;5.53;;
71046;SDS011;58703;48.978;8.982;2023-09-12T10:26:46;9.45;;;5.45;;
71046;SDS011;58703;48.978;8.982;2023-09-12T10:29:15;8.48;;;5.05;;
71046;SDS011;58703;48.978;8.982;2023-09-12T10:31:40;11.60;;;5.40;;
71046;SDS011;58703;48.978;8.982;2023-09-12T10:34:07;11.73;;;5.30;;
71046;SDS011;58703;48.978;8.982;2023-09-12T10:36:44;8.05;;;4.95;;
71046;SDS011;58703;48.978;8.982;2023-09-12T10:39:11;12.67;;;5.50;;
71046;SDS011;58703;48.978;8.982;2023-09-12T10:41:39;12.02;;;4.78;;
71046;SDS011;58703;48.978;8.982;2023-09-12T10:44:15;12.05;;;5.85;;
71046;SDS011;58703;48.978;8.982;2023-09-12T10:46:42;8.05;;;4.95;;
71046;SDS011;58703;48.978;8.982;2023-09-12T10:49:10;12.02;;;5.85;;
71046;SDS011;58703;48.978;8.982;2023-09-12T10:51:43;7.70;;;5.67;;
71046;SDS011;58703;48.978;8.982;2023-09-12T10:54:23;9.15;;;5.40;;
71046;SDS011;58703;48.978;8.982;2023-09-12T10:57:32;11.77;;;5.60;;
71046;SDS011;58703;48.978;8.982;2023-09-12T11:02:44;10.45;;;4.68;;
71046;SDS011;58703;48.978;8.982;2023-09-12T11:07:57;7.68;;;4.97;;
71046;SDS011;58703;48.978;8.982;2023-09-12T11:10:24;7.57;;;4.75;;
71046;SDS011;58703;48.978;8.982;2023-09-12T11:12:54;8.40;;;5.50;;
71046;SDS011;58703;48.978;8.982;2023-09-12T11:15:22;8.93;;;5.35;;
71046;SDS011;58703;48.978;8.982;2023-09-12T11:18:05;7.37;;;4.70;;
71046;SDS011;58703;48.978;8.982;2023-09-12T11:20:58;10.50;;;5.20;;
71046;SDS011;58703;48.978;8.982;2023-09-12T11:23:18;9.13;;;4.82;;
71046;SDS011;58703;48.978;8.982;2023-09-12T11:25:44;8.05;;;4.65;;
71046;SDS011;58703;48.978;8.982;2023-09-12T11:28:10;11.32;;;5.38;;
71046;SDS011;58703;48.978;8.982;2023-09-12T11:30:36;9.17;;;5.07;;
71046;SDS011;58703;48.978;8.982;2023-09-12T11:33:04;8.97;;;5.33;;
71046;SDS011;58703;48.978;8.982;2023-09-12T11:35:35;6.22;;;5.45;;
71046;SDS011;58703;48.978;8.982;2023-09-12T11:38:02;10.45;;;5.20;;
71046;SDS011;58703;48.978;8.982;2023-09-12T11:42:59;8.68;;;4.65;;
71046;SDS011;58703;48.978;8.982;2023-09-12T11:45:25;9.32;;;5.00;;
71046;SDS011;58703;48.978;8.982;2023-09-12T11:47:53;8.82;;;5.07;;
71046;SDS011;58703;48.978;8.982;2023-09-12T11:50:35;7.38;;;5.10;;
71046;SDS011;58703;48.978;8.982;2023-09-12T11:53:04;11.32;;;5.20;;
71046;SDS011;58703;48.978;8.982;2023-09-12T11:55:35;6.10;;;5.05;;
71046;SDS011;58703;48.978;8.982;2023-09-12T11:58:12;8.48;;;4.78;;
71046;SDS011;58703;48.978;8.982;2023-09-12T12:00:49;9.45;;;4.85;;
71046;SDS011;58703;48.978;8.982;2023-09-12T12:03:17;8.60;;;4.70;;
71046;SDS011;58703;48.978;8.982;2023-09-12T12:05:44;9.57;;;5.32;;
71046;SDS011;58703;48.978;8.982;2023-09-12T12:08:10;9.80;;;4.90;;
71046;SDS011;58703;48.978;8.982;2023-09-12T12:10:36;7.18;;;4.43;;
71046;SDS011;58703;48.978;8.982;2023-09-12T12:13:04;8.50;;;4.75;;
71046;SDS011;58703;48.978;8.982;2023-09-12T12:15:30;9.00;;;4.63;;
71046;SDS011;58703;48.978;8.982;2023-09-12T12:17:56;7.37;;;5.20;;
71046;SDS011;58703;48.978;8.982;2023-09-12T12:20:22;5.95;;;4.70;;
71046;SDS011;58703;48.978;8.982;2023-09-12T12:22:48;6.72;;;4.32;;
71046;SDS011;58703;48.978;8.982;2023-09-12T12:25:17;7.85;;;4.72;;
71046;SDS011;58703;48.978;8.982;2023-09-12T12:27:43;5.77;;;4.17;;
71046;SDS011;58703;48.978;8.982;2023-09-12T12:30:10;8.10;;;4.97;;
71046;SDS011;58703;48.978;8.982;2023-09-12T12:32:40;4.78;;;4.38;;
71046;SDS011;58703;48.978;8.982;2023-09-12T12:35:07;6.77;;;4.20;;
71046;SDS011;58703;48.978;8.982;2023-09-12T12:37:33;8.25;;;4.97;;
71046;SDS011;58703;48.978;8.982;2023-09-12T12:40:01;6.78;;;4.55;;
71046;SDS011;58703;48.978;8.982;2023-09-12T12:42:38;7.13;;;4.55;;
71046;SDS011;58703;48.978;8.982;2023-09-12T12:45:14;6.35;;;4.50;;
71046;SDS011;58703;48.978;8.982;2023-09-12T12:47:41;6.80;;;4.30;;
71046;SDS011;58703;48.978;8.982;2023-09-12T12:50:08;7.78;;;4.55;;
71046;SDS011;58703;48.978;8.982;2023-09-12T12:52:37;7.38;;;4.35;;
71046;SDS011;58703;48.978;8.982;2023-09-12T12:55:04;9.43;;;4.60;;
71046;SDS011;58703;48.978;8.982;2023-09-12T12:57:37;7.95;;;4.30;;
71046;SDS011;58703;48.978;8.982;2023-09-12T13:00:07;8.93;;;4.90;;
71046;SDS011;58703;48.978;8.982;2023-09-12T13:02:37;8.57;;;4.75;;
71046;SDS011;58703;48.978;8.982;2023-09-12T13:05:03;9.25;;;4.70;;
71046;SDS011;58703;48.978;8.982;2023-09-12T13:07:36;6.32;;;4.55;;
71046;SDS011;58703;48.978;8.982;2023-09-12T13:10:02;6.45;;;4.57;;
71046;SDS011;58703;48.978;8.982;2023-09-12T13:12:29;6.25;;;4.63;;
71046;SDS011;58703;48.978;8.982;2023-09-12T13:14:55;14.40;;;5.00;;
71046;SDS011;58703;48.978;8.982;2023-09-12T13:17:21;6.00;;;4.35;;
71046;SDS011;58703;48.978;8.982;2023-09-12T13:19:47;6.43;;;4.10;;
71046;SDS011;58703;48.978;8.982;2023-09-12T13:22:12;7.33;;;3.97;;
71046;SDS011;58703;48.978;8.982;2023-09-12T13:24:38;7.00;;;4.40;;
71046;SDS011;58703;48.978;8.982;2023-09-12T13:27:03;6.00;;;4.32;;
71046;SDS011;58703;48.978;8.982;2023-09-12T13:29:29;7.47;;;4.50;;
71046;SDS011;58703;48.978;8.982;2023-09-12T13:31:54;6.03;;;4.00;;
71046;SDS011;58703;48.978;8.982;2023-09-12T13:34:20;7.87;;;4.43;;
71046;SDS011;58703;48.978;8.982;2023-09-12T13:36:45;6.10;;;3.90;;
71046;SDS011;58703;48.978;8.982;2023-09-12T13:39:11;4.28;;;3.88;;
71046;SDS011;58703;48.978;8.982;2023-09-12T13:41:38;5.95;;;4.07;;
71046;SDS011;58703;48.978;8.982;2023-09-12T13:44:05;5.38;;;3.67;;
71046;SDS011;58703;48.978;8.982;2023-09-12T13:46:31;6.63;;;4.22;;
71046;SDS011;58703;48.978;8.982;2023-09-12T13:48:56;5.70;;;3.85;;
71046;SDS011;58703;48.978;8.982;2023-09-12T13:51:26;6.80;;;4.57;;
71046;SDS011;58703;48.978;8.982;2023-09-12T13:53:52;9.90;;;4.35;;
71046;SDS011;58703;48.978;8.982;2023-09-12T13:56:18;6.90;;;4.00;;
71046;SDS011;58703;48.978;8.982;2023-09-12T13:58:44;6.13;;;4.30;;
71046;SDS011;58703;48.978;8.982;2023-09-12T14:01:09;4.57;;;4.03;;
71046;SDS011;58703;48.978;8.982;2023-09-12T14:03:35;7.07;;;4.10;;
71046;SDS011;58703;48.978;8.982;2023-09-12T14:06:01;5.20;;;4.40;;
71046;SDS011;58703;48.978;8.982;2023-09-12T14:08:26;5.95;;;4.50;;
71046;SDS011;58703;48.978;8.982;2023-09-12T14:10:52;6.67;;;4.60;;
71046;SDS011;58703;48.978;8.982;2023-09-12T14:13:17;5.85;;;4.50;;
71046;SDS011;58703;48.978;8.982;2023-09-12T14:15:43;6.20;;;4.40;;
71046;SDS011;58703;48.978;8.982;2023-09-12T14:18:09;4.90;;;4.43;;
71046;SDS011;58703;48.978;8.982;2023-09-12T14:20:34;5.15;;;4.65;;
71046;SDS011;58703;48.978;8.982;2023-09-12T14:23:00;6.93;;;4.63;;
71046;SDS011;58703;48.978;8.982;2023-09-12T14:25:26;4.30;;;3.88;;
71046;SDS011;58703;48.978;8.982;2023-09-12T14:27:52;7.57;;;5.27;;
71046;SDS011;58703;48.978;8.982;2023-09-12T14:30:17;6.80;;;5.20;;
71046;SDS011;58703;48.978;8.982;2023-09-12T14:32:45;6.47;;;4.37;;
71046;SDS011;58703;48.978;8.982;2023-09-12T14:35:11;5.65;;;4.22;;
71046;SDS011;58703;48.978;8.982;2023-09-12T14:37:37;10.30;;;4.83;;
71046;SDS011;58703;48.978;8.982;2023-09-12T14:40:03;7.25;;;5.13;;
71046;SDS011;58703;48.978;8.982;2023-09-12T14:42:30;6.85;;;4.93;;
71046;SDS011;58703;48.978;8.982;2023-09-12T14:44:56;5.00;;;4.60;;
71046;SDS011;58703;48.978;8.982;2023-09-12T14:47:22;8.68;;;4.57;;
71046;SDS011;58703;48.978;8.982;2023-09-12T14:49:49;7.00;;;4.20;;